sensor_id;sensor_type;location;lat;lon;timestamp;pressure;altitude;pressure_sealevel;temperature;humidity
48404;BME280;34202;52.536;6.042;2023-02-28T00:00:33;103333.94;;;2.33;96.17
48404;BME280;34202;52.536;6.042;2023-02-28T00:05:34;103327.30;;;2.27;96.53
48404;BME280;34202;52.536;6.042;2023-02-28T00:10:34;103322.61;;;2.24;96.47
48404;BME280;34202;52.536;6.042;2023-02-28T00:15:35;103320.98;;;2.23;96.70
48404;BME280;34202;52.536;6.042;2023-02-28T00:20:36;103321.61;;;2.22;96.79
48404;BME280;34202;52.536;6.042;2023-02-28T00:25:36;103324.77;;;2.21;96.99
48404;BME280;34202;52.536;6.042;2023-02-28T00:30:36;103326.58;;;2.20;97.43
48404;BME280;34202;52.536;6.042;2023-02-28T00:35:37;103325.10;;;2.19;97.51
48404;BME280;34202;52.536;6.042;2023-02-28T00:40:37;103316.90;;;2.17;97.54
48404;BME280;34202;52.536;6.042;2023-02-28T00:45:37;103318.69;;;2.16;98.21
48404;BME280;34202;52.536;6.042;2023-02-28T00:50:38;103317.06;;;2.17;98.16
48404;BME280;34202;52.536;6.042;2023-02-28T00:55:38;103316.53;;;2.19;98.40
48404;BME280;34202;52.536;6.042;2023-02-28T01:00:38;103318.05;;;2.21;98.84
48404;BME280;34202;52.536;6.042;2023-02-28T01:05:39;103322.29;;;2.22;98.89
48404;BME280;34202;52.536;6.042;2023-02-28T01:10:41;103318.36;;;2.22;98.91
48404;BME280;34202;52.536;6.042;2023-02-28T01:15:46;103317.67;;;2.25;98.90
48404;BME280;34202;52.536;6.042;2023-02-28T01:20:49;103306.98;;;2.26;99.40
48404;BME280;34202;52.536;6.042;2023-02-28T01:25:52;103301.73;;;2.29;99.60
48404;BME280;34202;52.536;6.042;2023-02-28T01:30:53;103295.87;;;2.34;99.60
48404;BME280;34202;52.536;6.042;2023-02-28T01:36:01;103297.01;;;2.37;99.60
48404;BME280;34202;52.536;6.042;2023-02-28T01:41:03;103296.22;;;2.42;99.81
48404;BME280;34202;52.536;6.042;2023-02-28T01:46:04;103289.88;;;2.47;99.94
48404;BME280;34202;52.536;6.042;2023-02-28T01:51:15;103288.23;;;2.50;99.93
48404;BME280;34202;52.536;6.042;2023-02-28T01:56:21;103289.29;;;2.53;99.96
48404;BME280;34202;52.536;6.042;2023-02-28T02:01:25;103285.33;;;2.55;99.99
48404;BME280;34202;52.536;6.042;2023-02-28T02:06:43;103290.14;;;2.57;99.95
48404;BME280;34202;52.536;6.042;2023-02-28T02:11:46;103284.66;;;2.60;99.85
48404;BME280;34202;52.536;6.042;2023-02-28T02:32:49;103283.60;;;2.65;99.98
48404;BME280;34202;52.536;6.042;2023-02-28T02:38:24;103281.01;;;2.68;99.96
48404;BME280;34202;52.536;6.042;2023-02-28T02:43:51;103287.16;;;2.69;99.98
48404;BME280;34202;52.536;6.042;2023-02-28T02:48:54;103295.32;;;2.71;99.95
48404;BME280;34202;52.536;6.042;2023-02-28T02:54:20;103295.23;;;2.71;99.78
48404;BME280;34202;52.536;6.042;2023-02-28T02:59:24;103295.44;;;2.72;99.46
48404;BME280;34202;52.536;6.042;2023-02-28T03:04:28;103296.07;;;2.71;99.11
48404;BME280;34202;52.536;6.042;2023-02-28T03:09:33;103300.60;;;2.70;99.25
48404;BME280;34202;52.536;6.042;2023-02-28T03:25:20;103296.13;;;2.65;99.11
48404;BME280;34202;52.536;6.042;2023-02-28T03:30:29;103293.80;;;2.64;99.27
48404;BME280;34202;52.536;6.042;2023-02-28T03:35:37;103294.39;;;2.63;99.00
48404;BME280;34202;52.536;6.042;2023-02-28T03:40:42;103295.36;;;2.60;99.05
48404;BME280;34202;52.536;6.042;2023-02-28T03:45:47;103297.75;;;2.58;99.33
48404;BME280;34202;52.536;6.042;2023-02-28T03:50:53;103293.92;;;2.55;99.52
48404;BME280;34202;52.536;6.042;2023-02-28T03:55:59;103295.35;;;2.53;99.69
48404;BME280;34202;52.536;6.042;2023-02-28T04:01:11;103292.20;;;2.55;99.75
48404;BME280;34202;52.536;6.042;2023-02-28T04:06:16;103292.02;;;2.57;99.72
48404;BME280;34202;52.536;6.042;2023-02-28T04:16:26;103282.81;;;2.56;99.91
48404;BME280;34202;52.536;6.042;2023-02-28T04:21:29;103284.71;;;2.56;100.00
48404;BME280;34202;52.536;6.042;2023-02-28T04:26:30;103285.89;;;2.58;100.00
48404;BME280;34202;52.536;6.042;2023-02-28T04:31:31;103283.28;;;2.57;100.00
48404;BME280;34202;52.536;6.042;2023-02-28T04:36:32;103284.99;;;2.57;100.00
48404;BME280;34202;52.536;6.042;2023-02-28T04:41:32;103285.21;;;2.56;100.00
48404;BME280;34202;52.536;6.042;2023-02-28T04:46:33;103285.22;;;2.54;100.00
48404;BME280;34202;52.536;6.042;2023-02-28T04:51:33;103290.92;;;2.49;99.94
48404;BME280;34202;52.536;6.042;2023-02-28T04:56:34;103292.74;;;2.46;99.88
48404;BME280;34202;52.536;6.042;2023-02-28T05:01:34;103292.48;;;2.45;100.00
48404;BME280;34202;52.536;6.042;2023-02-28T05:06:36;103297.73;;;2.44;99.90
48404;BME280;34202;52.536;6.042;2023-02-28T05:11:36;103301.92;;;2.43;99.78
48404;BME280;34202;52.536;6.042;2023-02-28T05:16:38;103296.16;;;2.42;99.77
48404;BME280;34202;52.536;6.042;2023-02-28T05:21:54;103299.30;;;2.38;99.65
48404;BME280;34202;52.536;6.042;2023-02-28T05:26:55;103296.71;;;2.34;99.35
48404;BME280;34202;52.536;6.042;2023-02-28T05:31:55;103306.70;;;2.29;99.42
48404;BME280;34202;52.536;6.042;2023-02-28T05:36:55;103312.85;;;2.24;99.17
48404;BME280;34202;52.536;6.042;2023-02-28T05:41:56;103313.80;;;2.19;98.91
48404;BME280;34202;52.536;6.042;2023-02-28T05:46:56;103316.30;;;2.16;98.81
48404;BME280;34202;52.536;6.042;2023-02-28T05:51:57;103313.48;;;2.13;98.94
48404;BME280;34202;52.536;6.042;2023-02-28T05:56:57;103315.21;;;2.09;98.89
48404;BME280;34202;52.536;6.042;2023-02-28T06:01:57;103306.20;;;2.06;98.82
48404;BME280;34202;52.536;6.042;2023-02-28T06:06:58;103309.47;;;2.04;99.28
48404;BME280;34202;52.536;6.042;2023-02-28T06:11:59;103313.45;;;2.02;98.91
48404;BME280;34202;52.536;6.042;2023-02-28T06:17:00;103313.54;;;1.99;98.88
48404;BME280;34202;52.536;6.042;2023-02-28T06:22:01;103315.33;;;1.98;99.29
48404;BME280;34202;52.536;6.042;2023-02-28T06:27:01;103307.96;;;1.94;99.05
48404;BME280;34202;52.536;6.042;2023-02-28T06:32:05;103310.89;;;1.89;99.45
48404;BME280;34202;52.536;6.042;2023-02-28T06:37:06;103317.64;;;1.86;99.57
48404;BME280;34202;52.536;6.042;2023-02-28T06:42:06;103330.38;;;1.82;99.49
48404;BME280;34202;52.536;6.042;2023-02-28T06:47:06;103318.84;;;1.80;99.87
48404;BME280;34202;52.536;6.042;2023-02-28T06:52:07;103335.92;;;1.79;99.87
48404;BME280;34202;52.536;6.042;2023-02-28T06:57:08;103349.92;;;1.78;99.95
48404;BME280;34202;52.536;6.042;2023-02-28T07:02:09;103348.30;;;1.77;99.91
48404;BME280;34202;52.536;6.042;2023-02-28T07:07:09;103344.05;;;1.78;100.00
48404;BME280;34202;52.536;6.042;2023-02-28T07:12:10;103347.08;;;1.77;100.00
48404;BME280;34202;52.536;6.042;2023-02-28T07:17:10;103349.66;;;1.77;100.00
48404;BME280;34202;52.536;6.042;2023-02-28T07:22:12;103341.79;;;1.75;100.00
48404;BME280;34202;52.536;6.042;2023-02-28T07:27:13;103350.21;;;1.75;100.00
48404;BME280;34202;52.536;6.042;2023-02-28T07:32:23;103361.14;;;1.76;100.00
48404;BME280;34202;52.536;6.042;2023-02-28T07:37:23;103365.10;;;1.74;100.00
48404;BME280;34202;52.536;6.042;2023-02-28T07:42:24;103361.92;;;1.73;100.00
48404;BME280;34202;52.536;6.042;2023-02-28T07:47:24;103364.17;;;1.73;100.00
48404;BME280;34202;52.536;6.042;2023-02-28T07:52:25;103358.09;;;1.73;100.00
48404;BME280;34202;52.536;6.042;2023-02-28T07:57:25;103359.85;;;1.75;100.00
48404;BME280;34202;52.536;6.042;2023-02-28T08:02:26;103364.33;;;1.80;100.00
48404;BME280;34202;52.536;6.042;2023-02-28T08:07:26;103365.52;;;1.82;100.00
48404;BME280;34202;52.536;6.042;2023-02-28T08:12:27;103359.77;;;1.85;100.00
48404;BME280;34202;52.536;6.042;2023-02-28T08:17:27;103367.63;;;1.88;100.00
48404;BME280;34202;52.536;6.042;2023-02-28T08:22:27;103371.93;;;1.92;100.00
48404;BME280;34202;52.536;6.042;2023-02-28T08:27:28;103378.75;;;1.98;100.00
48404;BME280;34202;52.536;6.042;2023-02-28T08:32:28;103380.95;;;2.06;100.00
48404;BME280;34202;52.536;6.042;2023-02-28T08:37:29;103386.16;;;2.15;100.00
48404;BME280;34202;52.536;6.042;2023-02-28T08:42:29;103379.92;;;2.29;100.00
48404;BME280;34202;52.536;6.042;2023-02-28T08:47:30;103382.23;;;2.50;100.00
48404;BME280;34202;52.536;6.042;2023-02-28T08:52:30;103377.50;;;2.68;100.00
48404;BME280;34202;52.536;6.042;2023-02-28T08:57:31;103380.05;;;2.83;100.00
48404;BME280;34202;52.536;6.042;2023-02-28T09:02:31;103379.83;;;3.00;100.00
48404;BME280;34202;52.536;6.042;2023-02-28T09:07:32;103378.70;;;3.19;100.00
48404;BME280;34202;52.536;6.042;2023-02-28T09:12:34;103383.48;;;3.36;100.00
48404;BME280;34202;52.536;6.042;2023-02-28T09:17:35;103381.48;;;3.53;100.00
48404;BME280;34202;52.536;6.042;2023-02-28T09:22:36;103386.89;;;3.72;100.00
48404;BME280;34202;52.536;6.042;2023-02-28T09:27:36;103381.23;;;3.88;99.92
48404;BME280;34202;52.536;6.042;2023-02-28T09:32:37;103382.42;;;4.02;99.72
48404;BME280;34202;52.536;6.042;2023-02-28T09:37:37;103383.67;;;4.19;98.89
48404;BME280;34202;52.536;6.042;2023-02-28T09:42:38;103384.09;;;4.34;97.41
48404;BME280;34202;52.536;6.042;2023-02-28T09:47:45;103387.17;;;4.48;96.57
48404;BME280;34202;52.536;6.042;2023-02-28T09:52:48;103385.69;;;4.59;94.83
48404;BME280;34202;52.536;6.042;2023-02-28T09:57:50;103384.11;;;4.73;94.33
48404;BME280;34202;52.536;6.042;2023-02-28T10:19:20;103377.23;;;5.30;88.17
48404;BME280;34202;52.536;6.042;2023-02-28T10:24:41;103380.48;;;5.43;86.24
48404;BME280;34202;52.536;6.042;2023-02-28T10:29:45;103381.41;;;5.51;84.36
48404;BME280;34202;52.536;6.042;2023-02-28T10:34:53;103382.42;;;5.56;83.49
48404;BME280;34202;52.536;6.042;2023-02-28T10:39:56;103376.64;;;5.62;82.80
48404;BME280;34202;52.536;6.042;2023-02-28T10:45:28;103375.60;;;5.73;82.57
48404;BME280;34202;52.536;6.042;2023-02-28T10:50:50;103366.77;;;5.88;81.72
48404;BME280;34202;52.536;6.042;2023-02-28T11:01:14;103360.71;;;6.16;79.31
48404;BME280;34202;52.536;6.042;2023-02-28T11:06:22;103360.55;;;6.25;79.28
48404;BME280;34202;52.536;6.042;2023-02-28T11:11:26;103348.89;;;6.37;78.15
48404;BME280;34202;52.536;6.042;2023-02-28T11:16:33;103350.17;;;6.38;75.60
48404;BME280;34202;52.536;6.042;2023-02-28T11:21:36;103340.66;;;6.41;75.45
48404;BME280;34202;52.536;6.042;2023-02-28T11:26:43;103340.34;;;6.41;74.09
48404;BME280;34202;52.536;6.042;2023-02-28T11:37:09;103332.05;;;6.61;74.03
48404;BME280;34202;52.536;6.042;2023-02-28T11:53:05;103324.98;;;6.58;70.96
48404;BME280;34202;52.536;6.042;2023-02-28T11:58:25;103321.65;;;6.63;71.60
48404;BME280;34202;52.536;6.042;2023-02-28T12:09:05;103316.09;;;6.74;70.12
48404;BME280;34202;52.536;6.042;2023-02-28T12:14:46;103312.04;;;6.73;68.56
48404;BME280;34202;52.536;6.042;2023-02-28T12:19:52;103306.80;;;6.66;68.38
48404;BME280;34202;52.536;6.042;2023-02-28T12:30:30;103306.20;;;6.60;67.30
48404;BME280;34202;52.536;6.042;2023-02-28T12:46:04;103296.13;;;6.31;65.00
48404;BME280;34202;52.536;6.042;2023-02-28T12:51:09;103288.58;;;6.24;65.61
48404;BME280;34202;52.536;6.042;2023-02-28T12:56:17;103285.48;;;6.21;65.79
48404;BME280;34202;52.536;6.042;2023-02-28T13:12:21;103271.94;;;6.05;65.45
48404;BME280;34202;52.536;6.042;2023-02-28T13:17:24;103266.28;;;6.00;65.28
48404;BME280;34202;52.536;6.042;2023-02-28T13:27:40;103259.65;;;5.91;64.83
48404;BME280;34202;52.536;6.042;2023-02-28T13:32:40;103252.55;;;5.86;64.01
48404;BME280;34202;52.536;6.042;2023-02-28T13:37:44;103249.55;;;5.82;63.64
48404;BME280;34202;52.536;6.042;2023-02-28T13:42:49;103242.67;;;5.80;64.17
48404;BME280;34202;52.536;6.042;2023-02-28T13:48:04;103242.52;;;5.80;63.78
48404;BME280;34202;52.536;6.042;2023-02-28T14:03:54;103238.11;;;5.79;63.33
48404;BME280;34202;52.536;6.042;2023-02-28T14:09:18;103237.91;;;5.78;62.96
48404;BME280;34202;52.536;6.042;2023-02-28T14:19:48;103230.36;;;5.82;63.28
48404;BME280;34202;52.536;6.042;2023-02-28T14:40:30;103227.87;;;5.94;63.57
48404;BME280;34202;52.536;6.042;2023-02-28T14:45:34;103228.52;;;5.96;63.27
48404;BME280;34202;52.536;6.042;2023-02-28T14:50:37;103226.21;;;6.00;63.63
48404;BME280;34202;52.536;6.042;2023-02-28T14:55:44;103227.89;;;6.02;62.82
48404;BME280;34202;52.536;6.042;2023-02-28T15:00:50;103224.59;;;6.02;62.65
48404;BME280;34202;52.536;6.042;2023-02-28T15:05:56;103228.23;;;6.02;62.63
48404;BME280;34202;52.536;6.042;2023-02-28T15:11:17;103222.14;;;6.01;62.27
48404;BME280;34202;52.536;6.042;2023-02-28T15:16:34;103228.15;;;6.01;62.36
48404;BME280;34202;52.536;6.042;2023-02-28T15:21:43;103222.42;;;6.00;62.47
48404;BME280;34202;52.536;6.042;2023-02-28T15:26:47;103216.88;;;5.95;61.41
48404;BME280;34202;52.536;6.042;2023-02-28T15:36:57;103208.86;;;5.89;61.90
48404;BME280;34202;52.536;6.042;2023-02-28T15:42:18;103203.55;;;5.87;62.26
48404;BME280;34202;52.536;6.042;2023-02-28T15:47:27;103199.95;;;5.82;62.18
48404;BME280;34202;52.536;6.042;2023-02-28T15:52:41;103204.05;;;5.78;61.90
48404;BME280;34202;52.536;6.042;2023-02-28T15:57:42;103208.30;;;5.75;61.61
48404;BME280;34202;52.536;6.042;2023-02-28T16:02:47;103213.71;;;5.70;61.65
48404;BME280;34202;52.536;6.042;2023-02-28T16:07:47;103209.48;;;5.67;61.71
48404;BME280;34202;52.536;6.042;2023-02-28T16:12:49;103212.71;;;5.63;62.02
48404;BME280;34202;52.536;6.042;2023-02-28T16:17:49;103216.52;;;5.57;62.09
48404;BME280;34202;52.536;6.042;2023-02-28T16:22:50;103212.67;;;5.52;62.33
48404;BME280;34202;52.536;6.042;2023-02-28T16:27:53;103215.45;;;5.46;62.62
48404;BME280;34202;52.536;6.042;2023-02-28T16:32:55;103216.55;;;5.39;63.26
48404;BME280;34202;52.536;6.042;2023-02-28T16:37:55;103221.22;;;5.34;63.45
48404;BME280;34202;52.536;6.042;2023-02-28T16:42:58;103226.55;;;5.29;63.70
48404;BME280;34202;52.536;6.042;2023-02-28T16:48:00;103226.09;;;5.22;64.04
48404;BME280;34202;52.536;6.042;2023-02-28T16:53:00;103226.57;;;5.16;64.19
48404;BME280;34202;52.536;6.042;2023-02-28T16:58:02;103229.02;;;5.09;64.46
48404;BME280;34202;52.536;6.042;2023-02-28T17:03:02;103230.11;;;5.02;64.60
48404;BME280;34202;52.536;6.042;2023-02-28T17:08:03;103236.21;;;4.95;64.72
48404;BME280;34202;52.536;6.042;2023-02-28T17:13:04;103236.55;;;4.87;64.89
48404;BME280;34202;52.536;6.042;2023-02-28T17:18:13;103237.63;;;4.80;65.25
48404;BME280;34202;52.536;6.042;2023-02-28T17:23:15;103244.03;;;4.73;65.48
48404;BME280;34202;52.536;6.042;2023-02-28T17:28:16;103245.79;;;4.64;65.82
48404;BME280;34202;52.536;6.042;2023-02-28T17:33:16;103250.81;;;4.54;66.04
48404;BME280;34202;52.536;6.042;2023-02-28T17:38:18;103259.73;;;4.46;66.30
48404;BME280;34202;52.536;6.042;2023-02-28T17:43:19;103263.77;;;4.37;66.71
48404;BME280;34202;52.536;6.042;2023-02-28T17:48:19;103265.73;;;4.28;67.15
48404;BME280;34202;52.536;6.042;2023-02-28T17:53:20;103265.68;;;4.20;67.53
48404;BME280;34202;52.536;6.042;2023-02-28T17:58:23;103274.36;;;4.12;67.95
48404;BME280;34202;52.536;6.042;2023-02-28T18:03:23;103277.52;;;4.05;68.46
48404;BME280;34202;52.536;6.042;2023-02-28T18:08:25;103283.02;;;3.98;68.69
48404;BME280;34202;52.536;6.042;2023-02-28T18:13:26;103283.17;;;3.90;68.86
48404;BME280;34202;52.536;6.042;2023-02-28T18:18:27;103284.28;;;3.82;69.35
48404;BME280;34202;52.536;6.042;2023-02-28T18:23:28;103285.15;;;3.75;69.85
48404;BME280;34202;52.536;6.042;2023-02-28T18:28:28;103281.78;;;3.66;70.10
48404;BME280;34202;52.536;6.042;2023-02-28T18:33:28;103283.95;;;3.59;70.47
48404;BME280;34202;52.536;6.042;2023-02-28T18:38:29;103282.33;;;3.51;70.92
48404;BME280;34202;52.536;6.042;2023-02-28T18:43:31;103283.34;;;3.41;71.08
48404;BME280;34202;52.536;6.042;2023-02-28T18:48:32;103277.09;;;3.29;71.02
48404;BME280;34202;52.536;6.042;2023-02-28T18:53:34;103279.50;;;3.20;71.70
48404;BME280;34202;52.536;6.042;2023-02-28T18:58:35;103276.52;;;3.13;72.18
48404;BME280;34202;52.536;6.042;2023-02-28T19:03:35;103278.00;;;3.07;72.20
48404;BME280;34202;52.536;6.042;2023-02-28T19:08:36;103279.44;;;3.01;72.36
48404;BME280;34202;52.536;6.042;2023-02-28T19:13:36;103278.89;;;2.92;72.76
48404;BME280;34202;52.536;6.042;2023-02-28T19:18:38;103281.69;;;2.81;73.11
48404;BME280;34202;52.536;6.042;2023-02-28T19:23:39;103282.44;;;2.73;73.33
48404;BME280;34202;52.536;6.042;2023-02-28T19:28:40;103287.88;;;2.65;73.64
48404;BME280;34202;52.536;6.042;2023-02-28T19:33:41;103289.50;;;2.58;73.85
48404;BME280;34202;52.536;6.042;2023-02-28T19:38:42;103298.33;;;2.49;74.46
48404;BME280;34202;52.536;6.042;2023-02-28T19:43:44;103299.95;;;2.42;74.34
48404;BME280;34202;52.536;6.042;2023-02-28T19:48:45;103298.63;;;2.32;74.80
48404;BME280;34202;52.536;6.042;2023-02-28T19:53:45;103301.21;;;2.25;75.07
48404;BME280;34202;52.536;6.042;2023-02-28T19:58:45;103304.74;;;2.18;75.24
48404;BME280;34202;52.536;6.042;2023-02-28T20:03:50;103308.77;;;2.10;75.65
48404;BME280;34202;52.536;6.042;2023-02-28T20:08:53;103309.77;;;2.03;75.71
48404;BME280;34202;52.536;6.042;2023-02-28T20:13:54;103307.08;;;1.98;76.10
48404;BME280;34202;52.536;6.042;2023-02-28T20:18:56;103310.84;;;1.91;76.73
48404;BME280;34202;52.536;6.042;2023-02-28T20:23:56;103306.58;;;1.85;77.07
48404;BME280;34202;52.536;6.042;2023-02-28T20:28:57;103307.55;;;1.80;77.10
48404;BME280;34202;52.536;6.042;2023-02-28T20:33:57;103308.18;;;1.73;77.58
48404;BME280;34202;52.536;6.042;2023-02-28T20:38:58;103316.14;;;1.68;77.88
48404;BME280;34202;52.536;6.042;2023-02-28T20:43:58;103324.83;;;1.63;77.57
48404;BME280;34202;52.536;6.042;2023-02-28T20:49:00;103324.38;;;1.55;77.60
48404;BME280;34202;52.536;6.042;2023-02-28T20:54:01;103328.21;;;1.48;77.83
48404;BME280;34202;52.536;6.042;2023-02-28T20:59:01;103329.27;;;1.40;78.20
48404;BME280;34202;52.536;6.042;2023-02-28T21:04:04;103331.71;;;1.32;78.26
48404;BME280;34202;52.536;6.042;2023-02-28T21:09:06;103329.40;;;1.23;78.38
48404;BME280;34202;52.536;6.042;2023-02-28T21:14:12;103324.04;;;1.12;79.06
48404;BME280;34202;52.536;6.042;2023-02-28T21:19:13;103320.52;;;1.05;79.20
48404;BME280;34202;52.536;6.042;2023-02-28T21:24:16;103322.79;;;0.97;79.25
48404;BME280;34202;52.536;6.042;2023-02-28T21:29:17;103330.17;;;0.87;79.59
48404;BME280;34202;52.536;6.042;2023-02-28T21:34:18;103334.95;;;0.77;80.33
48404;BME280;34202;52.536;6.042;2023-02-28T21:39:24;103334.66;;;0.70;80.67
48404;BME280;34202;52.536;6.042;2023-02-28T21:44:26;103337.25;;;0.65;81.57
48404;BME280;34202;52.536;6.042;2023-02-28T21:49:27;103340.67;;;0.60;81.22
48404;BME280;34202;52.536;6.042;2023-02-28T21:54:28;103341.89;;;0.54;81.36
48404;BME280;34202;52.536;6.042;2023-02-28T21:59:28;103340.48;;;0.46;81.42
48404;BME280;34202;52.536;6.042;2023-02-28T22:04:28;103343.03;;;0.40;81.52
48404;BME280;34202;52.536;6.042;2023-02-28T22:09:29;103342.42;;;0.35;81.73
48404;BME280;34202;52.536;6.042;2023-02-28T22:14:30;103346.04;;;0.29;81.69
48404;BME280;34202;52.536;6.042;2023-02-28T22:19:30;103342.64;;;0.22;81.78
48404;BME280;34202;52.536;6.042;2023-02-28T22:24:31;103343.75;;;0.15;81.75
48404;BME280;34202;52.536;6.042;2023-02-28T22:29:31;103345.41;;;0.07;81.73
48404;BME280;34202;52.536;6.042;2023-02-28T22:34:31;103344.04;;;-0.03;82.05
48404;BME280;34202;52.536;6.042;2023-02-28T22:39:32;103346.53;;;-0.11;82.28
48404;BME280;34202;52.536;6.042;2023-02-28T22:44:32;103350.80;;;-0.19;82.38
48404;BME280;34202;52.536;6.042;2023-02-28T22:49:32;103353.02;;;-0.30;82.59
48404;BME280;34202;52.536;6.042;2023-02-28T22:54:33;103360.06;;;-0.39;82.99
48404;BME280;34202;52.536;6.042;2023-02-28T22:59:33;103371.48;;;-0.47;83.57
48404;BME280;34202;52.536;6.042;2023-02-28T23:04:34;103380.98;;;-0.59;84.03
48404;BME280;34202;52.536;6.042;2023-02-28T23:09:36;103371.81;;;-0.70;84.74
48404;BME280;34202;52.536;6.042;2023-02-28T23:14:36;103368.24;;;-0.79;85.13
48404;BME280;34202;52.536;6.042;2023-02-28T23:19:37;103369.09;;;-0.86;85.59
48404;BME280;34202;52.536;6.042;2023-02-28T23:24:37;103371.30;;;-0.92;86.05
48404;BME280;34202;52.536;6.042;2023-02-28T23:29:37;103368.87;;;-0.96;86.50
48404;BME280;34202;52.536;6.042;2023-02-28T23:34:38;103371.63;;;-1.00;87.01
48404;BME280;34202;52.536;6.042;2023-02-28T23:39:39;103375.53;;;-1.02;87.29
48404;BME280;34202;52.536;6.042;2023-02-28T23:44:40;103375.34;;;-1.05;87.54
48404;BME280;34202;52.536;6.042;2023-02-28T23:49:41;103376.83;;;-1.09;87.83
48404;BME280;34202;52.536;6.042;2023-02-28T23:54:41;103377.08;;;-1.12;87.96
48404;BME280;34202;52.536;6.042;2023-02-28T23:59:42;103367.64;;;-1.14;88.08
